createdAt,value
2022-09-28T00:00:53.413Z,14
2022-09-28T00:03:23.997Z,12
2022-09-28T00:05:54.641Z,12
2022-09-28T00:08:24.813Z,15
2022-09-28T00:10:55.496Z,15
2022-09-28T00:13:25.595Z,14
2022-09-28T00:15:55.862Z,12
2022-09-28T00:18:26.396Z,13
2022-09-28T00:20:56.777Z,11
2022-09-28T00:23:27.313Z,12
2022-09-28T00:25:57.859Z,15
2022-09-28T00:28:28.500Z,13
2022-09-28T00:30:59.217Z,14
2022-09-28T00:33:29.758Z,13
2022-09-28T00:36:00.292Z,15
2022-09-28T00:38:30.896Z,13
2022-09-28T00:41:01.204Z,14
2022-09-28T00:43:31.765Z,16
2022-09-28T00:46:02.371Z,11
2022-09-28T00:48:32.806Z,13
2022-09-28T00:51:03.435Z,12
2022-09-28T00:53:33.933Z,14
2022-09-28T00:56:04.562Z,15
2022-09-28T00:58:35.061Z,16
2022-09-28T01:01:05.641Z,11
2022-09-28T01:03:36.165Z,13
2022-09-28T01:06:06.832Z,13
2022-09-28T01:08:37.264Z,16
2022-09-28T01:11:07.545Z,19
2022-09-28T01:13:38.150Z,16
2022-09-28T01:16:08.745Z,16
2022-09-28T01:18:38.989Z,18
2022-09-28T01:21:09.598Z,16
2022-09-28T01:23:40.111Z,16
2022-09-28T01:26:10.306Z,14
2022-09-28T01:28:40.941Z,16
2022-09-28T01:31:11.548Z,16
2022-09-28T01:33:41.706Z,17
2022-09-28T01:36:12.275Z,15
2022-09-28T01:38:42.692Z,17
2022-09-28T01:41:13.165Z,15
2022-09-28T01:43:43.498Z,19
2022-09-28T01:46:14.248Z,16
2022-09-28T01:48:44.647Z,16
2022-09-28T01:51:15.532Z,18
2022-09-28T01:53:45.735Z,15
2022-09-28T01:56:16.510Z,21
2022-09-28T01:58:46.628Z,17
2022-09-28T02:01:17.483Z,19
2022-09-28T02:03:47.422Z,18
2022-09-28T02:06:18.189Z,19
2022-09-28T02:08:48.229Z,19
2022-09-28T02:11:18.441Z,16
2022-09-28T02:13:49.088Z,15
2022-09-28T02:16:19.071Z,17
2022-09-28T02:18:49.599Z,21
2022-09-28T02:21:20.367Z,22
2022-09-28T02:23:50.989Z,17
2022-09-28T02:26:21.193Z,18
2022-09-28T02:28:51.507Z,17
2022-09-28T02:31:22.111Z,18
2022-09-28T02:33:52.632Z,18
2022-09-28T02:36:23.487Z,20
2022-09-28T02:38:53.771Z,19
2022-09-28T02:41:24.026Z,21
2022-09-28T02:43:54.223Z,24
2022-09-28T02:46:24.288Z,17
2022-09-28T02:49:10.389Z,14
2022-09-28T02:51:25.448Z,19
2022-09-28T02:53:56.044Z,19
2022-09-28T02:56:26.892Z,19
2022-09-28T02:58:57.713Z,25
2022-09-28T03:01:27.712Z,22
2022-09-28T03:03:58.431Z,20
2022-09-28T03:06:28.811Z,23
2022-09-28T03:08:59.163Z,21
2022-09-28T03:11:29.902Z,21
2022-09-28T03:14:00.500Z,21
2022-09-28T03:16:30.742Z,21
2022-09-28T03:19:00.972Z,21
2022-09-28T03:21:31.510Z,19
2022-09-28T03:24:01.803Z,25
2022-09-28T03:26:32.557Z,24
2022-09-28T03:29:03.225Z,19
2022-09-28T03:31:33.909Z,23
2022-09-28T03:34:04.473Z,21
2022-09-28T03:36:34.664Z,17
2022-09-28T03:39:05.517Z,23
2022-09-28T03:41:36.407Z,24
2022-09-28T03:44:06.982Z,21
2022-09-28T03:46:37.157Z,24
2022-09-28T03:49:07.948Z,19
2022-09-28T03:51:38.144Z,24
2022-09-28T03:54:08.486Z,22
2022-09-28T03:56:38.673Z,20
2022-09-28T03:59:08.994Z,23
2022-09-28T04:01:39.927Z,24
2022-09-28T04:04:09.897Z,26
2022-09-28T04:06:40.324Z,24
2022-09-28T04:09:10.831Z,23
2022-09-28T04:11:59.764Z,18
2022-09-28T04:14:11.484Z,23
2022-09-28T04:16:42.341Z,22
2022-09-28T04:19:12.552Z,24
2022-09-28T04:21:43.040Z,24
2022-09-28T04:24:13.135Z,21
2022-09-28T04:26:43.319Z,25
2022-09-28T04:29:13.775Z,23
2022-09-28T04:31:43.958Z,25
2022-09-28T04:34:14.160Z,23
2022-09-28T04:36:44.866Z,26
2022-09-28T04:39:15.485Z,26
2022-09-28T04:41:46.030Z,26
2022-09-28T04:44:15.985Z,24
2022-09-28T04:46:46.496Z,24
2022-09-28T04:49:17.015Z,29
2022-09-28T04:51:47.598Z,24
2022-09-28T04:54:18.204Z,22
2022-09-28T04:56:48.205Z,27
2022-09-28T04:59:19.045Z,24
2022-09-28T05:01:49.125Z,23
2022-09-28T05:04:22.373Z,25
2022-09-28T05:06:49.880Z,22
2022-09-28T05:09:20.155Z,23
2022-09-28T05:11:50.737Z,28
2022-09-28T05:14:21.378Z,25
2022-09-28T05:16:52.198Z,22
2022-09-28T05:19:22.453Z,23
2022-09-28T05:21:53.326Z,27
2022-09-28T05:24:24.152Z,25
2022-09-28T05:26:54.479Z,27
2022-09-28T05:29:26.417Z,25
2022-09-28T05:31:55.666Z,26
2022-09-28T05:34:25.888Z,24
2022-09-28T05:36:56.543Z,35
2022-09-28T05:39:26.868Z,24
2022-09-28T05:41:56.725Z,27
2022-09-28T05:44:27.331Z,28
2022-09-28T05:46:57.667Z,24
2022-09-28T05:49:28.059Z,27
2022-09-28T05:51:58.854Z,27
2022-09-28T05:54:29.691Z,25
2022-09-28T05:56:59.925Z,27
2022-09-28T05:59:30.614Z,24
2022-09-28T06:02:00.630Z,25
2022-09-28T06:04:31.480Z,30
2022-09-28T06:07:02.015Z,29
2022-09-28T06:09:32.530Z,25
2022-09-28T06:12:03.143Z,28
2022-09-28T06:14:34.061Z,29
2022-09-28T06:17:04.246Z,26
2022-09-28T06:19:34.814Z,31
2022-09-28T06:22:05.442Z,35
2022-09-28T06:24:35.867Z,26
2022-09-28T06:27:06.039Z,29
2022-09-28T06:29:36.336Z,32
2022-09-28T06:32:06.518Z,31
2022-09-28T06:34:37.229Z,30
2022-09-28T06:37:08.029Z,29
2022-09-28T06:39:38.447Z,28
2022-09-28T06:42:08.471Z,29
2022-09-28T06:44:39.158Z,26
2022-09-28T06:47:09.708Z,26
2022-09-28T06:49:40.600Z,25
2022-09-28T06:52:11.399Z,29
2022-09-28T06:54:42.298Z,27
2022-09-28T06:57:13.085Z,28
2022-09-28T06:59:43.164Z,24
2022-09-28T07:02:14.085Z,21
2022-09-28T07:04:44.744Z,22
2022-09-28T07:07:15.581Z,23
2022-09-28T07:09:50.330Z,25
2022-09-28T07:12:16.662Z,27
2022-09-28T07:14:48.325Z,23
2022-09-28T07:17:17.543Z,21
2022-09-28T07:19:47.533Z,19
2022-09-28T07:22:19.581Z,17
2022-09-28T07:24:48.187Z,20
2022-09-28T07:27:18.897Z,16
2022-09-28T07:29:48.903Z,17
2022-09-28T07:32:19.198Z,18
2022-09-28T07:34:50.231Z,16
2022-09-28T07:37:20.492Z,17
2022-09-28T07:39:51.160Z,20
2022-09-28T07:42:21.895Z,22
2022-09-28T07:44:52.168Z,26
2022-09-28T07:47:22.841Z,25
2022-09-28T07:49:53.030Z,20
2022-09-28T07:52:23.817Z,25
2022-09-28T07:54:54.133Z,21
2022-09-28T07:59:55.299Z,23
2022-09-28T08:02:25.602Z,23
2022-09-28T08:04:55.869Z,22
2022-09-28T08:07:26.554Z,24
2022-09-28T08:09:56.981Z,26
2022-09-28T08:12:27.262Z,16
2022-09-28T08:14:57.309Z,18
2022-09-28T08:17:27.846Z,25
2022-09-28T08:19:58.103Z,24
2022-09-28T08:22:28.660Z,22
2022-09-28T08:24:59.241Z,20
2022-09-28T08:27:29.778Z,23
2022-09-28T08:29:59.774Z,26
2022-09-28T08:32:29.995Z,18
2022-09-28T08:35:00.396Z,17
2022-09-28T08:37:31.281Z,26
2022-09-28T08:40:01.726Z,21
2022-09-28T08:42:31.837Z,22
2022-09-28T08:45:02.445Z,23
2022-09-28T08:47:32.884Z,23
2022-09-28T08:50:03.416Z,21
2022-09-28T08:52:33.561Z,19
2022-09-28T08:55:04.066Z,23
2022-09-28T08:57:34.256Z,21
2022-09-28T09:00:09.564Z,27
2022-09-28T09:02:35.937Z,24
2022-09-28T09:05:06.455Z,21
2022-09-28T09:07:36.445Z,22
2022-09-28T09:10:07.050Z,20
2022-09-28T09:12:37.174Z,18
2022-09-28T09:15:08.066Z,25
2022-09-28T09:17:38.605Z,21
2022-09-28T09:20:09.020Z,20
2022-09-28T09:22:39.053Z,20
2022-09-28T09:25:09.808Z,26
2022-09-28T09:27:40.357Z,21
2022-09-28T09:30:10.679Z,14
2022-09-28T09:32:41.139Z,16
2022-09-28T09:35:11.431Z,16
2022-09-28T09:37:42.158Z,18
2022-09-28T09:40:12.959Z,20
2022-09-28T09:42:43.454Z,18
2022-09-28T09:45:13.559Z,23
2022-09-28T09:47:44.172Z,21
2022-09-28T09:50:14.367Z,17
2022-09-28T09:52:45.100Z,20
2022-09-28T09:55:15.914Z,15
2022-09-28T09:57:46.331Z,16
2022-09-28T10:00:16.617Z,24
2022-09-28T10:02:47.168Z,15
2022-09-28T10:05:17.909Z,16
2022-09-28T10:07:48.071Z,22
2022-09-28T10:10:18.786Z,19
2022-09-28T10:12:49.638Z,15
2022-09-28T10:15:19.328Z,14
2022-09-28T10:17:49.897Z,14
2022-09-28T10:20:20.103Z,11
2022-09-28T10:22:50.632Z,15
2022-09-28T10:25:20.901Z,13
2022-09-28T10:27:51.063Z,12
2022-09-28T10:30:21.626Z,8
2022-09-28T10:32:52.137Z,13
2022-09-28T10:35:22.639Z,11
2022-09-28T10:37:53.127Z,9
2022-09-28T10:40:23.669Z,10
2022-09-28T10:42:53.852Z,9
2022-09-28T10:45:24.394Z,9
2022-09-28T10:47:54.869Z,10
2022-09-28T10:50:25.129Z,12
2022-09-28T10:52:55.237Z,7
2022-09-28T10:55:26.033Z,11
2022-09-28T10:57:56.536Z,12
2022-09-28T11:00:27.059Z,13
2022-09-28T11:02:57.606Z,12
2022-09-28T11:05:28.107Z,9
2022-09-28T11:07:58.536Z,13
2022-09-28T11:10:28.798Z,9
2022-09-28T11:12:59.297Z,11
2022-09-28T11:15:29.826Z,11
2022-09-28T11:18:00.300Z,8
2022-09-28T11:20:30.832Z,7
2022-09-28T11:23:01.332Z,11
2022-09-28T11:25:31.507Z,8
2022-09-28T11:28:01.993Z,9
2022-09-28T11:30:32.570Z,9
2022-09-28T11:33:03.127Z,12
2022-09-28T11:35:33.667Z,7
2022-09-28T11:38:03.936Z,7
2022-09-28T11:40:34.505Z,5
2022-09-28T11:45:35.401Z,4
2022-09-28T11:48:05.935Z,4
2022-09-28T11:50:36.419Z,4
2022-09-28T11:53:06.857Z,4
2022-09-28T11:55:37.139Z,6
2022-09-28T11:58:07.521Z,5
2022-09-28T12:00:38.074Z,4
2022-09-28T12:03:08.647Z,4
2022-09-28T12:05:38.986Z,3
2022-09-28T12:08:09.408Z,1
2022-09-28T12:10:43.359Z,2
2022-09-28T12:13:10.345Z,0
2022-09-28T12:16:07.502Z,3
2022-09-28T12:18:11.314Z,2
2022-09-28T12:20:41.746Z,3
2022-09-28T12:23:12.200Z,2
2022-09-28T12:25:42.683Z,2
2022-09-28T12:28:13.141Z,5
2022-09-28T12:30:43.721Z,6
2022-09-28T12:33:14.115Z,3
2022-09-28T12:35:44.614Z,0
2022-09-28T12:38:15.017Z,0
2022-09-28T12:40:45.564Z,1
2022-09-28T12:43:15.941Z,0
2022-09-28T12:46:09.848Z,2
2022-09-28T12:48:16.860Z,1
2022-09-28T12:50:54.670Z,2
2022-09-28T12:53:17.784Z,7
2022-09-28T12:55:48.092Z,24
2022-09-28T12:58:18.334Z,17
2022-09-28T13:00:49.039Z,16
2022-09-28T13:03:19.551Z,13
2022-09-28T13:05:50.093Z,8
2022-09-28T13:08:20.679Z,3
2022-09-28T13:10:51.150Z,3
2022-09-28T13:13:21.698Z,0
2022-09-28T13:15:52.104Z,1
2022-09-28T13:18:22.461Z,3
2022-09-28T13:20:53.306Z,3
2022-09-28T13:23:23.376Z,2
2022-09-28T13:25:53.821Z,1
2022-09-28T13:28:26.996Z,1
2022-09-28T13:30:54.855Z,5
2022-09-28T13:33:25.199Z,2
2022-09-28T13:35:55.711Z,4
2022-09-28T13:38:26.206Z,4
2022-09-28T13:40:56.588Z,3
2022-09-28T13:43:27.029Z,2
2022-09-28T13:45:57.555Z,3
2022-09-28T13:48:27.913Z,2
2022-09-28T13:50:58.463Z,3
2022-09-28T13:53:28.780Z,2
2022-09-28T13:55:59.219Z,2
2022-09-28T13:58:29.638Z,2
2022-09-28T14:01:00.093Z,3
2022-09-28T14:03:30.512Z,2
2022-09-28T14:06:00.948Z,2
2022-09-28T14:08:31.460Z,2
2022-09-28T14:11:01.881Z,2
2022-09-28T14:13:32.245Z,3
2022-09-28T14:16:02.724Z,6
2022-09-28T14:18:33.067Z,5
2022-09-28T14:21:03.630Z,5
2022-09-28T14:23:34.188Z,5
2022-09-28T14:26:04.357Z,3
2022-09-28T14:28:34.795Z,6
2022-09-28T14:31:05.356Z,5
2022-09-28T14:33:35.621Z,5
2022-09-28T14:36:05.754Z,7
2022-09-28T14:38:36.143Z,4
2022-09-28T14:41:06.777Z,5
2022-09-28T14:43:36.959Z,3
2022-09-28T14:46:07.402Z,4
2022-09-28T14:48:37.849Z,4
2022-09-28T14:51:08.267Z,2
2022-09-28T14:53:38.623Z,4
2022-09-28T14:56:09.025Z,2
2022-09-28T14:58:39.426Z,2
2022-09-28T15:01:09.838Z,3
2022-09-28T15:03:40.189Z,2
2022-09-28T15:06:10.604Z,6
2022-09-28T15:08:41.012Z,10
2022-09-28T15:11:11.466Z,4
2022-09-28T15:13:41.872Z,3
2022-09-28T15:16:12.344Z,3
2022-09-28T15:18:42.765Z,4
2022-09-28T15:21:13.214Z,8
2022-09-28T15:23:43.363Z,6
2022-09-28T15:26:14.354Z,2
2022-09-28T15:28:44.184Z,3
2022-09-28T15:31:14.761Z,2
2022-09-28T15:33:45.089Z,5
2022-09-28T15:36:15.676Z,2
2022-09-28T15:38:46.041Z,5
2022-09-28T15:41:16.467Z,3
2022-09-28T15:43:46.956Z,4
2022-09-28T15:46:17.540Z,4
2022-09-28T15:48:47.861Z,3
2022-09-28T15:51:18.445Z,2
2022-09-28T15:53:48.775Z,4
2022-09-28T15:56:19.255Z,4
2022-09-28T15:58:49.721Z,5
2022-09-28T16:01:20.295Z,4
2022-09-28T16:03:50.656Z,3
2022-09-28T16:06:21.208Z,4
2022-09-28T16:08:51.631Z,3
2022-09-28T16:11:22.069Z,3
2022-09-28T16:13:52.558Z,3
2022-09-28T16:16:23.070Z,3
2022-09-28T16:18:53.422Z,3
2022-09-28T16:21:23.902Z,2
2022-09-28T16:23:54.295Z,3
2022-09-28T16:26:24.815Z,2
2022-09-28T16:28:55.209Z,3
2022-09-28T16:31:25.735Z,1
2022-09-28T16:33:56.101Z,3
2022-09-28T16:36:26.632Z,7
2022-09-28T16:38:57.049Z,0
2022-09-28T16:41:27.493Z,1
2022-09-28T16:43:57.943Z,1
2022-09-28T16:46:28.575Z,2
2022-09-28T16:48:58.868Z,1
2022-09-28T16:51:29.372Z,10
2022-09-28T16:53:59.876Z,13
2022-09-28T16:56:30.405Z,12
2022-09-28T16:59:00.950Z,21
2022-09-28T17:01:31.688Z,31
2022-09-28T17:04:02.193Z,36
2022-09-28T17:06:32.462Z,25
2022-09-28T17:09:03.085Z,40
2022-09-28T17:11:33.766Z,40
2022-09-28T17:14:04.170Z,8
2022-09-28T17:19:04.825Z,4
2022-09-28T17:21:35.284Z,6
2022-09-28T17:24:05.720Z,7
2022-09-28T17:26:36.171Z,5
2022-09-28T17:29:06.621Z,4
2022-09-28T17:31:37.185Z,4
2022-09-28T17:34:07.475Z,2
2022-09-28T17:36:37.937Z,4
2022-09-28T17:39:08.323Z,4
2022-09-28T17:41:38.767Z,1
2022-09-28T17:44:09.174Z,3
2022-09-28T17:46:39.744Z,2
2022-09-28T17:49:10.033Z,1
2022-09-28T17:51:40.455Z,2
2022-09-28T17:54:10.874Z,1
2022-09-28T17:56:41.304Z,2
2022-09-28T17:59:11.863Z,1
2022-09-28T18:01:42.313Z,1
2022-09-28T18:04:19.190Z,0
2022-09-28T18:06:43.046Z,1
2022-09-28T18:09:13.457Z,1
2022-09-28T18:11:43.912Z,1
2022-09-28T18:14:14.342Z,0
2022-09-28T18:16:44.817Z,1
2022-09-28T18:19:15.228Z,1
2022-09-28T18:21:45.694Z,2
2022-09-28T18:24:16.208Z,3
2022-09-28T18:26:46.621Z,9
2022-09-28T18:29:17.174Z,11
2022-09-28T18:31:47.722Z,20
2022-09-28T18:34:18.110Z,5
2022-09-28T18:36:48.567Z,24
2022-09-28T18:39:19.149Z,24
2022-09-28T18:41:49.177Z,31
2022-09-28T18:44:19.341Z,44
2022-09-28T18:46:49.962Z,1
2022-09-28T18:49:20.537Z,2
2022-09-28T18:51:50.904Z,4
2022-09-28T18:54:21.293Z,4
2022-09-28T18:56:51.879Z,3
2022-09-28T18:59:22.461Z,3
2022-09-28T19:01:53.071Z,3
2022-09-28T19:04:23.333Z,6
2022-09-28T19:06:53.846Z,4
2022-09-28T19:09:24.336Z,5
2022-09-28T19:11:54.863Z,6
2022-09-28T19:14:25.371Z,4
2022-09-28T19:16:55.898Z,5
2022-09-28T19:19:26.391Z,4
2022-09-28T19:21:56.937Z,4
2022-09-28T19:24:27.425Z,5
2022-09-28T19:26:58.088Z,5
2022-09-28T19:29:28.466Z,6
2022-09-28T19:31:59.037Z,7
2022-09-28T19:34:29.542Z,7
2022-09-28T19:37:00.099Z,6
2022-09-28T19:39:30.631Z,8
2022-09-28T19:42:01.189Z,6
2022-09-28T19:44:31.691Z,8
2022-09-28T19:47:02.377Z,9
2022-09-28T19:49:32.772Z,7
2022-09-28T19:52:14.576Z,7
2022-09-28T19:54:36.503Z,7
2022-09-28T19:57:04.434Z,7
2022-09-28T19:59:35.003Z,5
2022-09-28T20:02:05.565Z,8
2022-09-28T20:04:36.143Z,7
2022-09-28T20:07:06.684Z,7
2022-09-28T20:09:37.178Z,7
2022-09-28T20:12:07.757Z,8
2022-09-28T20:14:40.478Z,9
2022-09-28T20:17:08.892Z,6
2022-09-28T20:19:39.414Z,8
2022-09-28T20:22:09.928Z,9
2022-09-28T20:24:40.472Z,12
2022-09-28T20:27:11.026Z,7
2022-09-28T20:29:41.623Z,10
2022-09-28T20:32:12.150Z,6
2022-09-28T20:34:42.667Z,8
2022-09-28T20:37:13.464Z,7
2022-09-28T20:39:45.051Z,7
2022-09-28T20:42:14.356Z,6
2022-09-28T20:44:44.824Z,9
2022-09-28T20:47:15.402Z,8
2022-09-28T20:49:45.920Z,5
2022-09-28T20:52:16.534Z,7
2022-09-28T20:54:47.083Z,7
2022-09-28T20:57:17.792Z,9
2022-09-28T20:59:53.617Z,9
2022-09-28T21:02:18.792Z,9
2022-09-28T21:04:49.275Z,7
2022-09-28T21:07:19.849Z,7
2022-09-28T21:09:50.447Z,11
2022-09-28T21:12:21.076Z,11
2022-09-28T21:14:51.550Z,9
2022-09-28T21:17:22.153Z,8
2022-09-28T21:19:52.688Z,8
2022-09-28T21:22:23.302Z,9
2022-09-28T21:24:53.519Z,10
2022-09-28T21:27:24.065Z,8
2022-09-28T21:29:54.671Z,11
2022-09-28T21:32:25.257Z,10
2022-09-28T21:34:55.769Z,11
2022-09-28T21:37:26.169Z,12
2022-09-28T21:39:56.686Z,12
2022-09-28T21:42:27.337Z,7
2022-09-28T21:44:59.477Z,11
2022-09-28T21:47:28.425Z,12
2022-09-28T21:49:59.010Z,17
2022-09-28T21:52:29.628Z,12
2022-09-28T21:55:00.237Z,9
2022-09-28T21:57:30.831Z,11
2022-09-28T22:00:01.458Z,10
2022-09-28T22:02:32.059Z,9
2022-09-28T22:05:02.620Z,11
2022-09-28T22:07:33.237Z,9
2022-09-28T22:10:03.806Z,11
2022-09-28T22:12:34.436Z,9
2022-09-28T22:15:05.016Z,8
2022-09-28T22:17:35.664Z,11
2022-09-28T22:20:06.230Z,9
2022-09-28T22:22:36.891Z,9
2022-09-28T22:25:07.566Z,11
2022-09-28T22:27:38.083Z,8
2022-09-28T22:30:08.710Z,8
2022-09-28T22:32:39.092Z,9
2022-09-28T22:35:09.609Z,9
2022-09-28T22:37:40.241Z,7
2022-09-28T22:40:10.938Z,9
2022-09-28T22:42:41.460Z,8
2022-09-28T22:45:12.060Z,8
2022-09-28T22:47:42.718Z,9
2022-09-28T22:50:13.363Z,13
2022-09-28T22:52:43.931Z,8
2022-09-28T22:55:14.536Z,12
2022-09-28T22:57:45.166Z,10
2022-09-28T23:00:15.774Z,12
2022-09-28T23:02:46.531Z,11
2022-09-28T23:05:17.041Z,11
2022-09-28T23:07:47.674Z,8
2022-09-28T23:10:18.277Z,11
2022-09-28T23:12:48.930Z,9
2022-09-28T23:15:19.189Z,12
2022-09-28T23:17:49.836Z,13
2022-09-28T23:20:20.431Z,11
2022-09-28T23:22:51.067Z,14
2022-09-28T23:25:21.683Z,14
2022-09-28T23:27:52.331Z,10
2022-09-28T23:30:22.956Z,13
2022-09-28T23:32:53.595Z,12
2022-09-28T23:35:24.196Z,13
2022-09-28T23:37:54.674Z,10
2022-09-28T23:40:25.259Z,13
2022-09-28T23:42:55.949Z,15
2022-09-28T23:45:26.178Z,13
2022-09-28T23:47:56.580Z,15
2022-09-28T23:50:27.078Z,13
2022-09-28T23:52:57.704Z,15
2022-09-28T23:55:28.329Z,14
2022-09-28T23:57:58.964Z,16
